Espaço - Ciências - Fenômenos Naturais
Meteógrafos Informações Meteorológicas em tempo real

Aeroporto São José do Rio Preto

Histórico do Tempo
Temperatura atual: 20 graus 68 F    Umidade relativa: 88 %
Velocidade do vento: 04 nós 7 Km/h    Direção: 260 graus W
Ajuste do altímetro ..: 1016 HPA
Visibilidade: Ótima    Tempo presente: Parcialmente Nublado

Observação
Nuvens esparsas a 2000 Pés., Céu nublado a 7000 Pés.

Data Hora BRTTempo°CUmidadePressãoVentoVisib.
24/05 - 08:56   Parcialmente Nublado 20° 88% 1016 Oeste/7 km/h OK
24/05 - 07:56   Parcialmente Nublado 20° 88% 1015 Oeste/14 km/h OK
24/05 - 06:56   Parcialmente Nublado 20° 82% 1015 Oeste/14 km/h OK
24/05 - 05:56   Céu Limpo 20° 73% 1014 Oeste-noroeste/7 km/h OK
24/05 - 04:56   Céu Limpo 19° 72% 1014 Norte/0 km/h OK
24/05 - 03:56   Céu Limpo 20° 77% 1013 Norte/0 km/h OK
24/05 - 02:56   Céu Limpo 20° 77% 1014 Norte/0 km/h OK
24/05 - 01:56   Céu Limpo 21° 68% 1014 Norte/0 km/h OK
24/05 - 00:56   Céu Limpo 22° 64% 1015 Norte/0 km/h OK
23/05 - 23:56   Céu Limpo 23° 60% 1015 Norte/0 km/h OK
23/05 - 22:56   Céu Limpo 23° 64% 1015 Norte/0 km/h OK
23/05 - 21:56   Céu Limpo 24° 57% 1015 Norte/0 km/h OK
23/05 - 20:56   Céu Limpo 24° 53% 1015 Norte/0 km/h OK
23/05 - 19:56   Céu Limpo 25° 50% 1014 Norte/0 km/h OK
23/05 - 18:56   Céu Limpo 27° 42% 1014 Norte/0 km/h OK
23/05 - 17:56   Céu Limpo 30° 33% 1013 Oeste-noroeste/5 km/h OK
23/05 - 16:56   Céu Limpo 30° 33% 1013 Norte/9 km/h OK
23/05 - 15:56   Céu Limpo 30° 31% 1013 Norte-noroeste/9 km/h CAVO
23/05 - 14:56   Céu Limpo 30° 33% 1014 Norte-noroeste/7 km/h OK
23/05 - 13:56   Céu Limpo 30° 35% 1015 Norte/9 km/h OK
23/05 - 12:56   Céu Limpo 28° 39% 1016 Este-nordeste/7 km/h OK
23/05 - 11:56   Céu Limpo 26° 50% 1017 Norte-nordeste/9 km/h OK
23/05 - 10:56   Céu Limpo 24° 57% 1017 Nordeste/9 km/h OK
23/05 - 09:56   Céu Limpo 21° 64% 1017 Este-nordeste/9 km/h OK


Apolo11.com - Todos os direitos reservados - 2000 - 2019
Política de Privacidade   |     Termo de Uso e Licenciamento   |  -   Entre em Contato

"Política é a guerra sem sangue enquanto a guerra é a política com sangue" - Mao Tsé-Tung